sensor_id;sensor_type;location;lat;lon;timestamp;pressure;altitude;pressure_sealevel;temperature;humidity
40946;BME280;55635;50.264;11.918;2023-04-10T00:00:53;96399.88;;;5.43;73.20
40946;BME280;55635;50.264;11.918;2023-04-10T00:03:36;96399.72;;;5.45;73.58
40946;BME280;55635;50.264;11.918;2023-04-10T00:06:17;96391.78;;;5.35;73.36
40946;BME280;55635;50.264;11.918;2023-04-10T00:08:59;96402.63;;;5.42;73.38
40946;BME280;55635;50.264;11.918;2023-04-10T00:11:39;96402.03;;;5.29;73.07
40946;BME280;55635;50.264;11.918;2023-04-10T00:14:21;96388.69;;;5.11;74.22
40946;BME280;55635;50.264;11.918;2023-04-10T00:17:04;96382.72;;;5.09;72.63
40946;BME280;55635;50.264;11.918;2023-04-10T00:19:44;96403.09;;;5.17;70.99
40946;BME280;55635;50.264;11.918;2023-04-10T00:22:25;96402.50;;;5.04;72.67
40946;BME280;55635;50.264;11.918;2023-04-10T00:25:07;96399.03;;;5.03;72.53
40946;BME280;55635;50.264;11.918;2023-04-10T00:27:48;96386.00;;;4.92;73.01
40946;BME280;55635;50.264;11.918;2023-04-10T00:30:29;96379.59;;;4.85;73.09
40946;BME280;55635;50.264;11.918;2023-04-10T00:33:10;96377.28;;;4.91;72.96
40946;BME280;55635;50.264;11.918;2023-04-10T00:35:51;96372.72;;;4.93;73.27
40946;BME280;55635;50.264;11.918;2023-04-10T00:38:32;96385.31;;;5.00;72.53
40946;BME280;55635;50.264;11.918;2023-04-10T00:41:13;96382.97;;;4.97;72.59
40946;BME280;55635;50.264;11.918;2023-04-10T00:43:57;96354.41;;;4.82;73.32
40946;BME280;55635;50.264;11.918;2023-04-10T00:46:39;96366.13;;;5.09;72.36
40946;BME280;55635;50.264;11.918;2023-04-10T00:49:21;96369.97;;;4.95;73.67
40946;BME280;55635;50.264;11.918;2023-04-10T00:52:01;96361.59;;;4.80;72.83
40946;BME280;55635;50.264;11.918;2023-04-10T00:54:42;96365.19;;;4.79;72.62
40946;BME280;55635;50.264;11.918;2023-04-10T00:57:24;96363.78;;;4.75;73.23
40946;BME280;55635;50.264;11.918;2023-04-10T01:00:07;96361.00;;;4.67;73.01
40946;BME280;55635;50.264;11.918;2023-04-10T01:02:48;96356.69;;;4.66;73.03
40946;BME280;55635;50.264;11.918;2023-04-10T01:05:41;96361.31;;;4.74;73.75
40946;BME280;55635;50.264;11.918;2023-04-10T01:15:11;96361.41;;;4.72;74.68
40946;BME280;55635;50.264;11.918;2023-04-10T01:18:04;96359.31;;;4.66;74.94
40946;BME280;55635;50.264;11.918;2023-04-10T01:20:48;96361.50;;;4.61;74.28
40946;BME280;55635;50.264;11.918;2023-04-10T01:24:00;96362.47;;;4.60;73.48
40946;BME280;55635;50.264;11.918;2023-04-10T01:29:30;96359.03;;;4.39;72.55
40946;BME280;55635;50.264;11.918;2023-04-10T01:32:19;96359.66;;;4.52;73.22
40946;BME280;55635;50.264;11.918;2023-04-10T01:35:05;96374.00;;;4.48;74.76
40946;BME280;55635;50.264;11.918;2023-04-10T01:37:50;96351.50;;;4.25;73.36
40946;BME280;55635;50.264;11.918;2023-04-10T01:40:34;96356.91;;;4.33;74.30
40946;BME280;55635;50.264;11.918;2023-04-10T01:43:20;96352.19;;;4.27;72.82
40946;BME280;55635;50.264;11.918;2023-04-10T01:46:05;96352.69;;;4.21;73.08
40946;BME280;55635;50.264;11.918;2023-04-10T01:48:48;96369.28;;;4.21;73.49
40946;BME280;55635;50.264;11.918;2023-04-10T01:51:30;96375.88;;;4.16;74.04
40946;BME280;55635;50.264;11.918;2023-04-10T01:54:14;96373.63;;;4.11;73.54
40946;BME280;55635;50.264;11.918;2023-04-10T01:57:00;96352.56;;;4.02;75.35
40946;BME280;55635;50.264;11.918;2023-04-10T01:59:46;96369.56;;;4.07;75.21
40946;BME280;55635;50.264;11.918;2023-04-10T02:02:32;96351.34;;;3.85;75.45
40946;BME280;55635;50.264;11.918;2023-04-10T02:05:15;96369.63;;;3.96;74.70
40946;BME280;55635;50.264;11.918;2023-04-10T02:08:13;96365.72;;;3.91;74.85
40946;BME280;55635;50.264;11.918;2023-04-10T02:14:17;96373.94;;;3.65;73.82
40946;BME280;55635;50.264;11.918;2023-04-10T02:17:01;96371.31;;;3.65;73.95
40946;BME280;55635;50.264;11.918;2023-04-10T02:19:42;96363.59;;;3.53;74.47
40946;BME280;55635;50.264;11.918;2023-04-10T02:22:27;96375.66;;;3.44;74.73
40946;BME280;55635;50.264;11.918;2023-04-10T02:25:09;96386.41;;;3.41;75.34
40946;BME280;55635;50.264;11.918;2023-04-10T02:27:51;96380.06;;;3.44;75.22
40946;BME280;55635;50.264;11.918;2023-04-10T02:30:32;96376.25;;;3.48;75.21
40946;BME280;55635;50.264;11.918;2023-04-10T02:33:14;96378.25;;;3.55;74.50
40946;BME280;55635;50.264;11.918;2023-04-10T02:35:55;96375.38;;;3.58;75.01
40946;BME280;55635;50.264;11.918;2023-04-10T02:38:36;96364.44;;;3.53;74.67
40946;BME280;55635;50.264;11.918;2023-04-10T02:41:18;96380.00;;;3.66;75.32
40946;BME280;55635;50.264;11.918;2023-04-10T02:43:59;96375.59;;;3.66;75.09
40946;BME280;55635;50.264;11.918;2023-04-10T02:46:42;96383.09;;;3.71;77.40
40946;BME280;55635;50.264;11.918;2023-04-10T02:49:24;96374.13;;;3.73;76.84
40946;BME280;55635;50.264;11.918;2023-04-10T02:52:06;96376.19;;;3.70;77.48
40946;BME280;55635;50.264;11.918;2023-04-10T02:54:48;96364.16;;;3.67;77.88
40946;BME280;55635;50.264;11.918;2023-04-10T02:57:30;96369.13;;;3.70;77.73
40946;BME280;55635;50.264;11.918;2023-04-10T03:00:12;96364.63;;;3.61;78.88
40946;BME280;55635;50.264;11.918;2023-04-10T03:03:18;96361.13;;;3.51;78.89
40946;BME280;55635;50.264;11.918;2023-04-10T03:06:04;96362.06;;;3.50;77.57
40946;BME280;55635;50.264;11.918;2023-04-10T03:08:47;96371.84;;;3.37;77.07
40946;BME280;55635;50.264;11.918;2023-04-10T03:11:28;96368.63;;;3.45;74.20
40946;BME280;55635;50.264;11.918;2023-04-10T03:14:10;96362.31;;;3.47;74.79
40946;BME280;55635;50.264;11.918;2023-04-10T03:16:51;96373.00;;;3.55;74.39
40946;BME280;55635;50.264;11.918;2023-04-10T03:19:32;96365.53;;;3.51;74.28
40946;BME280;55635;50.264;11.918;2023-04-10T03:22:13;96367.41;;;3.60;73.75
40946;BME280;55635;50.264;11.918;2023-04-10T03:24:54;96367.56;;;3.47;74.54
40946;BME280;55635;50.264;11.918;2023-04-10T03:27:37;96353.31;;;3.29;74.44
40946;BME280;55635;50.264;11.918;2023-04-10T03:30:18;96356.63;;;3.31;73.87
40946;BME280;55635;50.264;11.918;2023-04-10T03:33:01;96370.41;;;3.44;75.83
40946;BME280;55635;50.264;11.918;2023-04-10T03:35:42;96364.97;;;3.36;75.78
40946;BME280;55635;50.264;11.918;2023-04-10T03:38:23;96352.13;;;3.22;76.22
40946;BME280;55635;50.264;11.918;2023-04-10T03:41:05;96352.38;;;3.30;77.59
40946;BME280;55635;50.264;11.918;2023-04-10T03:43:47;96376.72;;;3.53;76.24
40946;BME280;55635;50.264;11.918;2023-04-10T03:46:28;96364.69;;;3.50;75.24
40946;BME280;55635;50.264;11.918;2023-04-10T03:49:10;96373.63;;;3.48;74.70
40946;BME280;55635;50.264;11.918;2023-04-10T03:51:51;96365.81;;;3.25;75.62
40946;BME280;55635;50.264;11.918;2023-04-10T03:54:32;96370.00;;;3.17;76.12
40946;BME280;55635;50.264;11.918;2023-04-10T03:57:14;96369.63;;;3.21;75.60
40946;BME280;55635;50.264;11.918;2023-04-10T03:59:55;96368.09;;;3.19;76.50
40946;BME280;55635;50.264;11.918;2023-04-10T04:02:37;96375.34;;;3.26;77.43
40946;BME280;55635;50.264;11.918;2023-04-10T04:05:18;96363.81;;;3.18;75.63
40946;BME280;55635;50.264;11.918;2023-04-10T04:08:15;96356.31;;;3.13;75.81
40946;BME280;55635;50.264;11.918;2023-04-10T04:11:14;96384.53;;;3.10;78.54
40946;BME280;55635;50.264;11.918;2023-04-10T04:14:09;96364.88;;;3.15;76.64
40946;BME280;55635;50.264;11.918;2023-04-10T04:16:59;96379.66;;;3.16;77.27
40946;BME280;55635;50.264;11.918;2023-04-10T04:20:05;96380.25;;;2.98;76.93
40946;BME280;55635;50.264;11.918;2023-04-10T04:23:01;96385.16;;;3.02;75.99
40946;BME280;55635;50.264;11.918;2023-04-10T04:25:51;96385.50;;;2.98;75.56
40946;BME280;55635;50.264;11.918;2023-04-10T04:28:52;96388.34;;;2.95;75.31
40946;BME280;55635;50.264;11.918;2023-04-10T04:31:53;96386.00;;;2.81;75.56
40946;BME280;55635;50.264;11.918;2023-04-10T04:34:42;96387.41;;;2.73;76.32
40946;BME280;55635;50.264;11.918;2023-04-10T04:37:36;96393.94;;;2.79;76.65
40946;BME280;55635;50.264;11.918;2023-04-10T04:40:52;96384.53;;;2.77;77.48
40946;BME280;55635;50.264;11.918;2023-04-10T04:43:54;96391.91;;;2.94;76.13
40946;BME280;55635;50.264;11.918;2023-04-10T04:46:43;96404.28;;;3.03;76.53
40946;BME280;55635;50.264;11.918;2023-04-10T04:49:32;96406.31;;;3.10;76.34
40946;BME280;55635;50.264;11.918;2023-04-10T04:52:30;96381.69;;;3.02;78.57
40946;BME280;55635;50.264;11.918;2023-04-10T04:55:33;96370.84;;;2.95;77.36
40946;BME280;55635;50.264;11.918;2023-04-10T04:58:29;96388.13;;;2.98;76.63
40946;BME280;55635;50.264;11.918;2023-04-10T05:01:42;96401.94;;;3.11;76.38
40946;BME280;55635;50.264;11.918;2023-04-10T05:04:31;96397.28;;;3.14;75.28
40946;BME280;55635;50.264;11.918;2023-04-10T05:07:22;96393.06;;;3.34;75.67
40946;BME280;55635;50.264;11.918;2023-04-10T05:10:19;96379.03;;;3.13;75.86
40946;BME280;55635;50.264;11.918;2023-04-10T05:13:13;96389.75;;;3.32;75.85
40946;BME280;55635;50.264;11.918;2023-04-10T05:16:07;96388.91;;;3.32;75.74
40946;BME280;55635;50.264;11.918;2023-04-10T05:18:55;96391.38;;;3.44;74.82
40946;BME280;55635;50.264;11.918;2023-04-10T05:22:07;96397.53;;;3.65;73.57
40946;BME280;55635;50.264;11.918;2023-04-10T05:25:07;96393.72;;;3.69;74.09
40946;BME280;55635;50.264;11.918;2023-04-10T05:27:55;96387.72;;;3.78;74.52
40946;BME280;55635;50.264;11.918;2023-04-10T05:30:58;96394.31;;;3.73;74.76
40946;BME280;55635;50.264;11.918;2023-04-10T05:33:59;96399.16;;;3.77;74.96
40946;BME280;55635;50.264;11.918;2023-04-10T05:36:54;96391.59;;;3.63;75.54
40946;BME280;55635;50.264;11.918;2023-04-10T05:39:41;96398.63;;;3.63;75.93
40946;BME280;55635;50.264;11.918;2023-04-10T05:42:38;96381.09;;;3.63;76.36
40946;BME280;55635;50.264;11.918;2023-04-10T05:45:37;96392.72;;;3.70;76.54
40946;BME280;55635;50.264;11.918;2023-04-10T05:48:38;96405.59;;;3.84;75.92
40946;BME280;55635;50.264;11.918;2023-04-10T05:51:38;96402.22;;;3.94;75.78
40946;BME280;55635;50.264;11.918;2023-04-10T05:54:31;96394.28;;;4.05;76.16
40946;BME280;55635;50.264;11.918;2023-04-10T05:57:42;96394.94;;;4.18;76.36
40946;BME280;55635;50.264;11.918;2023-04-10T06:00:38;96382.34;;;4.12;76.50
40946;BME280;55635;50.264;11.918;2023-04-10T06:03:52;96401.09;;;4.28;76.84
40946;BME280;55635;50.264;11.918;2023-04-10T06:06:35;96393.75;;;5.33;80.48
40946;BME280;55635;50.264;11.918;2023-04-10T06:09:16;96382.09;;;6.33;72.17
40946;BME280;55635;50.264;11.918;2023-04-10T06:11:57;96374.59;;;7.31;67.49
40946;BME280;55635;50.264;11.918;2023-04-10T06:14:40;96383.44;;;7.85;65.39
40946;BME280;55635;50.264;11.918;2023-04-10T06:17:21;96376.97;;;8.50;63.90
40946;BME280;55635;50.264;11.918;2023-04-10T06:20:06;96376.22;;;9.51;64.50
40946;BME280;55635;50.264;11.918;2023-04-10T06:22:48;96372.38;;;10.03;59.13
40946;BME280;55635;50.264;11.918;2023-04-10T06:25:29;96367.97;;;10.52;57.41
40946;BME280;55635;50.264;11.918;2023-04-10T06:28:13;96360.50;;;10.72;57.63
40946;BME280;55635;50.264;11.918;2023-04-10T06:30:56;96357.03;;;11.42;56.79
40946;BME280;55635;50.264;11.918;2023-04-10T06:33:44;96364.78;;;11.91;56.07
40946;BME280;55635;50.264;11.918;2023-04-10T06:36:25;96346.81;;;11.70;53.52
40946;BME280;55635;50.264;11.918;2023-04-10T06:39:14;96342.19;;;11.95;54.98
40946;BME280;55635;50.264;11.918;2023-04-10T06:41:55;96338.53;;;12.19;53.80
40946;BME280;55635;50.264;11.918;2023-04-10T06:44:45;96342.41;;;12.31;54.02
40946;BME280;55635;50.264;11.918;2023-04-10T06:47:26;96332.47;;;12.85;53.96
40946;BME280;55635;50.264;11.918;2023-04-10T06:50:08;96321.59;;;13.24;53.47
40946;BME280;55635;50.264;11.918;2023-04-10T06:52:49;96335.75;;;13.89;50.26
40946;BME280;55635;50.264;11.918;2023-04-10T06:55:30;96335.81;;;13.96;49.43
40946;BME280;55635;50.264;11.918;2023-04-10T06:58:11;96334.31;;;14.08;50.73
40946;BME280;55635;50.264;11.918;2023-04-10T07:00:52;96338.97;;;14.21;50.06
40946;BME280;55635;50.264;11.918;2023-04-10T07:03:36;96337.34;;;13.69;50.85
40946;BME280;55635;50.264;11.918;2023-04-10T07:06:17;96332.56;;;14.15;50.24
40946;BME280;55635;50.264;11.918;2023-04-10T07:08:58;96332.06;;;13.90;50.83
40946;BME280;55635;50.264;11.918;2023-04-10T07:11:40;96335.91;;;13.37;52.60
40946;BME280;55635;50.264;11.918;2023-04-10T07:14:21;96341.16;;;13.96;52.82
40946;BME280;55635;50.264;11.918;2023-04-10T07:17:02;96327.69;;;15.16;49.17
40946;BME280;55635;50.264;11.918;2023-04-10T07:19:43;96331.31;;;15.77;49.67
40946;BME280;55635;50.264;11.918;2023-04-10T07:22:24;96329.06;;;15.88;46.95
40946;BME280;55635;50.264;11.918;2023-04-10T07:25:05;96329.88;;;15.82;48.64
40946;BME280;55635;50.264;11.918;2023-04-10T07:27:46;96323.50;;;13.59;52.99
40946;BME280;55635;50.264;11.918;2023-04-10T07:30:27;96338.09;;;12.90;55.20
40946;BME280;55635;50.264;11.918;2023-04-10T07:33:08;96336.28;;;13.34;55.80
40946;BME280;55635;50.264;11.918;2023-04-10T07:35:49;96330.66;;;14.51;52.03
40946;BME280;55635;50.264;11.918;2023-04-10T07:38:31;96323.53;;;14.37;52.37
40946;BME280;55635;50.264;11.918;2023-04-10T07:41:12;96334.09;;;15.22;51.20
40946;BME280;55635;50.264;11.918;2023-04-10T07:43:53;96329.09;;;15.12;51.70
40946;BME280;55635;50.264;11.918;2023-04-10T07:46:34;96319.78;;;15.70;49.21
40946;BME280;55635;50.264;11.918;2023-04-10T07:49:15;96326.44;;;14.85;51.41
40946;BME280;55635;50.264;11.918;2023-04-10T07:51:56;96340.28;;;13.74;57.05
40946;BME280;55635;50.264;11.918;2023-04-10T07:54:37;96327.53;;;13.70;55.32
40946;BME280;55635;50.264;11.918;2023-04-10T07:57:18;96331.59;;;12.70;57.83
40946;BME280;55635;50.264;11.918;2023-04-10T07:59:59;96343.97;;;12.25;59.34
40946;BME280;55635;50.264;11.918;2023-04-10T08:02:40;96327.16;;;12.47;57.03
40946;BME280;55635;50.264;11.918;2023-04-10T08:05:21;96332.78;;;12.30;56.72
40946;BME280;55635;50.264;11.918;2023-04-10T08:08:02;96316.25;;;12.57;60.00
40946;BME280;55635;50.264;11.918;2023-04-10T08:10:43;96309.06;;;12.66;56.16
40946;BME280;55635;50.264;11.918;2023-04-10T08:13:24;96319.31;;;13.35;52.83
40946;BME280;55635;50.264;11.918;2023-04-10T08:16:05;96313.69;;;13.30;55.24
40946;BME280;55635;50.264;11.918;2023-04-10T08:18:46;96318.88;;;13.68;53.30
40946;BME280;55635;50.264;11.918;2023-04-10T08:21:29;96312.06;;;14.01;52.11
40946;BME280;55635;50.264;11.918;2023-04-10T08:24:11;96303.72;;;13.18;52.88
40946;BME280;55635;50.264;11.918;2023-04-10T08:26:52;96305.31;;;12.89;56.26
40946;BME280;55635;50.264;11.918;2023-04-10T08:29:33;96313.31;;;13.04;53.88
40946;BME280;55635;50.264;11.918;2023-04-10T08:32:14;96308.94;;;13.11;55.68
40946;BME280;55635;50.264;11.918;2023-04-10T08:34:55;96308.50;;;13.58;53.24
40946;BME280;55635;50.264;11.918;2023-04-10T08:37:36;96305.31;;;13.33;54.47
40946;BME280;55635;50.264;11.918;2023-04-10T08:40:17;96291.59;;;13.66;51.98
40946;BME280;55635;50.264;11.918;2023-04-10T08:42:58;96292.47;;;13.51;50.15
40946;BME280;55635;50.264;11.918;2023-04-10T08:45:40;96295.88;;;13.16;51.81
40946;BME280;55635;50.264;11.918;2023-04-10T08:48:25;96296.91;;;13.30;51.11
40946;BME280;55635;50.264;11.918;2023-04-10T08:51:16;96294.03;;;14.39;50.57
40946;BME280;55635;50.264;11.918;2023-04-10T08:54:05;96283.66;;;13.36;50.52
40946;BME280;55635;50.264;11.918;2023-04-10T08:56:50;96293.00;;;13.03;52.86
40946;BME280;55635;50.264;11.918;2023-04-10T08:59:33;96281.72;;;13.30;51.39
40946;BME280;55635;50.264;11.918;2023-04-10T09:02:14;96298.06;;;13.27;54.34
40946;BME280;55635;50.264;11.918;2023-04-10T09:04:57;96272.72;;;12.73;54.05
40946;BME280;55635;50.264;11.918;2023-04-10T09:07:40;96276.41;;;13.01;54.74
40946;BME280;55635;50.264;11.918;2023-04-10T09:10:21;96278.78;;;12.96;53.39
40946;BME280;55635;50.264;11.918;2023-04-10T09:13:02;96280.59;;;13.39;52.42
40946;BME280;55635;50.264;11.918;2023-04-10T09:15:58;96261.84;;;14.75;50.50
40946;BME280;55635;50.264;11.918;2023-04-10T09:18:46;96274.41;;;13.68;54.93
40946;BME280;55635;50.264;11.918;2023-04-10T09:21:27;96261.78;;;13.77;51.12
40946;BME280;55635;50.264;11.918;2023-04-10T09:24:08;96261.84;;;14.47;52.09
40946;BME280;55635;50.264;11.918;2023-04-10T09:26:49;96260.41;;;14.44;49.00
40946;BME280;55635;50.264;11.918;2023-04-10T09:29:46;96256.69;;;15.42;48.41
40946;BME280;55635;50.264;11.918;2023-04-10T09:32:49;96260.00;;;15.03;48.47
40946;BME280;55635;50.264;11.918;2023-04-10T09:35:37;96259.63;;;14.50;53.02
40946;BME280;55635;50.264;11.918;2023-04-10T09:38:22;96264.09;;;15.40;48.97
40946;BME280;55635;50.264;11.918;2023-04-10T09:41:07;96251.34;;;14.39;51.52
40946;BME280;55635;50.264;11.918;2023-04-10T09:43:48;96251.94;;;14.19;50.54
40946;BME280;55635;50.264;11.918;2023-04-10T09:46:29;96250.00;;;14.84;51.15
40946;BME280;55635;50.264;11.918;2023-04-10T09:49:10;96245.63;;;14.69;50.78
40946;BME280;55635;50.264;11.918;2023-04-10T09:51:51;96240.00;;;13.94;53.58
40946;BME280;55635;50.264;11.918;2023-04-10T09:54:35;96226.56;;;14.02;53.24
40946;BME280;55635;50.264;11.918;2023-04-10T09:57:21;96229.69;;;14.06;49.68
40946;BME280;55635;50.264;11.918;2023-04-10T10:00:04;96233.75;;;14.02;53.16
40946;BME280;55635;50.264;11.918;2023-04-10T10:02:48;96222.09;;;13.67;52.42
40946;BME280;55635;50.264;11.918;2023-04-10T10:05:30;96216.75;;;13.82;52.04
40946;BME280;55635;50.264;11.918;2023-04-10T10:08:13;96214.91;;;13.46;52.17
40946;BME280;55635;50.264;11.918;2023-04-10T10:10:57;96226.47;;;14.94;52.49
40946;BME280;55635;50.264;11.918;2023-04-10T10:13:50;96194.81;;;14.56;52.17
40946;BME280;55635;50.264;11.918;2023-04-10T10:16:42;96201.47;;;14.18;54.04
40946;BME280;55635;50.264;11.918;2023-04-10T10:19:38;96208.41;;;14.68;52.12
40946;BME280;55635;50.264;11.918;2023-04-10T10:22:21;96194.94;;;14.76;51.20
40946;BME280;55635;50.264;11.918;2023-04-10T10:25:06;96185.88;;;14.77;50.63
40946;BME280;55635;50.264;11.918;2023-04-10T10:27:49;96196.94;;;14.67;50.85
40946;BME280;55635;50.264;11.918;2023-04-10T10:30:32;96157.34;;;14.37;50.10
40946;BME280;55635;50.264;11.918;2023-04-10T10:33:14;96175.84;;;14.45;50.67
40946;BME280;55635;50.264;11.918;2023-04-10T10:36:02;96175.06;;;13.17;55.36
40946;BME280;55635;50.264;11.918;2023-04-10T10:38:56;96168.25;;;14.21;53.17
40946;BME280;55635;50.264;11.918;2023-04-10T10:41:59;96175.03;;;14.44;51.37
40946;BME280;55635;50.264;11.918;2023-04-10T10:45:11;96163.06;;;14.34;49.25
40946;BME280;55635;50.264;11.918;2023-04-10T10:47:54;96161.78;;;14.57;48.98
40946;BME280;55635;50.264;11.918;2023-04-10T10:50:52;96168.75;;;14.99;51.77
40946;BME280;55635;50.264;11.918;2023-04-10T10:53:40;96156.91;;;14.67;48.43
40946;BME280;55635;50.264;11.918;2023-04-10T10:59:02;96137.34;;;14.60;50.50
40946;BME280;55635;50.264;11.918;2023-04-10T11:04:55;96146.72;;;14.50;51.55
40946;BME280;55635;50.264;11.918;2023-04-10T11:08:08;96127.88;;;16.25;47.88
40946;BME280;55635;50.264;11.918;2023-04-10T11:11:08;96140.81;;;14.54;47.75
40946;BME280;55635;50.264;11.918;2023-04-10T11:16:41;96118.44;;;14.55;51.17
40946;BME280;55635;50.264;11.918;2023-04-10T11:19:23;96125.03;;;14.32;49.80
40946;BME280;55635;50.264;11.918;2023-04-10T11:22:06;96095.91;;;14.30;48.97
40946;BME280;55635;50.264;11.918;2023-04-10T11:24:59;96110.03;;;13.26;50.19
40946;BME280;55635;50.264;11.918;2023-04-10T11:27:45;96081.53;;;13.97;49.70
40946;BME280;55635;50.264;11.918;2023-04-10T11:30:33;96105.06;;;14.49;49.53
40946;BME280;55635;50.264;11.918;2023-04-10T11:33:17;96107.41;;;14.03;50.11
40946;BME280;55635;50.264;11.918;2023-04-10T11:35:58;96106.00;;;14.35;47.96
40946;BME280;55635;50.264;11.918;2023-04-10T11:39:00;96110.84;;;14.25;47.52
40946;BME280;55635;50.264;11.918;2023-04-10T11:41:52;96108.19;;;14.59;47.35
40946;BME280;55635;50.264;11.918;2023-04-10T11:44:34;96103.25;;;13.94;47.74
40946;BME280;55635;50.264;11.918;2023-04-10T11:47:15;96092.19;;;14.25;47.55
40946;BME280;55635;50.264;11.918;2023-04-10T11:49:56;96063.72;;;14.79;47.65
40946;BME280;55635;50.264;11.918;2023-04-10T11:52:38;96072.47;;;15.20;44.99
40946;BME280;55635;50.264;11.918;2023-04-10T11:55:19;96075.84;;;14.82;47.68
40946;BME280;55635;50.264;11.918;2023-04-10T11:58:00;96086.94;;;15.59;47.80
40946;BME280;55635;50.264;11.918;2023-04-10T12:00:41;96080.16;;;15.63;46.74
40946;BME280;55635;50.264;11.918;2023-04-10T12:03:42;96060.53;;;14.56;46.53
40946;BME280;55635;50.264;11.918;2023-04-10T12:06:23;96073.97;;;14.35;48.56
40946;BME280;55635;50.264;11.918;2023-04-10T12:09:13;96067.00;;;15.94;44.71
40946;BME280;55635;50.264;11.918;2023-04-10T12:12:04;96052.44;;;16.67;44.86
40946;BME280;55635;50.264;11.918;2023-04-10T12:14:45;96070.72;;;15.73;44.41
40946;BME280;55635;50.264;11.918;2023-04-10T12:17:26;96054.81;;;15.39;44.79
40946;BME280;55635;50.264;11.918;2023-04-10T12:20:08;96050.84;;;14.42;45.61
40946;BME280;55635;50.264;11.918;2023-04-10T12:22:49;96052.63;;;15.62;45.31
40946;BME280;55635;50.264;11.918;2023-04-10T12:25:30;96044.34;;;16.03;46.66
40946;BME280;55635;50.264;11.918;2023-04-10T12:28:17;96062.47;;;15.55;45.27
40946;BME280;55635;50.264;11.918;2023-04-10T12:30:58;96048.09;;;15.83;44.71
40946;BME280;55635;50.264;11.918;2023-04-10T12:33:46;96038.16;;;16.16;45.43
40946;BME280;55635;50.264;11.918;2023-04-10T12:36:28;96054.66;;;15.87;43.28
40946;BME280;55635;50.264;11.918;2023-04-10T12:39:22;96027.50;;;15.57;43.04
40946;BME280;55635;50.264;11.918;2023-04-10T12:42:14;96036.91;;;16.12;45.78
40946;BME280;55635;50.264;11.918;2023-04-10T12:47:49;96026.03;;;15.41;46.29
40946;BME280;55635;50.264;11.918;2023-04-10T12:50:45;96033.88;;;16.02;45.81
40946;BME280;55635;50.264;11.918;2023-04-10T12:53:27;96014.72;;;16.05;42.45
40946;BME280;55635;50.264;11.918;2023-04-10T12:56:08;96006.56;;;16.57;43.76
40946;BME280;55635;50.264;11.918;2023-04-10T12:59:07;95986.47;;;17.42;41.37
40946;BME280;55635;50.264;11.918;2023-04-10T13:01:48;95991.22;;;16.20;44.39
40946;BME280;55635;50.264;11.918;2023-04-10T13:04:30;95973.91;;;16.73;41.84
40946;BME280;55635;50.264;11.918;2023-04-10T13:07:11;95976.06;;;15.94;42.34
40946;BME280;55635;50.264;11.918;2023-04-10T13:09:52;95991.28;;;15.94;45.27
40946;BME280;55635;50.264;11.918;2023-04-10T13:12:34;95971.78;;;16.88;44.93
40946;BME280;55635;50.264;11.918;2023-04-10T13:15:15;95969.50;;;16.92;43.73
40946;BME280;55635;50.264;11.918;2023-04-10T13:17:57;95976.72;;;15.76;45.03
40946;BME280;55635;50.264;11.918;2023-04-10T13:20:39;95962.97;;;16.81;42.18
40946;BME280;55635;50.264;11.918;2023-04-10T13:23:20;95942.63;;;16.23;42.28
40946;BME280;55635;50.264;11.918;2023-04-10T13:26:01;95943.16;;;16.82;41.65
40946;BME280;55635;50.264;11.918;2023-04-10T13:28:43;95953.25;;;16.36;41.98
40946;BME280;55635;50.264;11.918;2023-04-10T13:31:24;95946.59;;;16.58;43.03
40946;BME280;55635;50.264;11.918;2023-04-10T13:34:05;95924.00;;;16.85;42.74
40946;BME280;55635;50.264;11.918;2023-04-10T13:36:46;95925.03;;;16.02;43.53
40946;BME280;55635;50.264;11.918;2023-04-10T13:39:29;95912.16;;;16.24;42.99
40946;BME280;55635;50.264;11.918;2023-04-10T13:42:10;95924.19;;;16.91;42.90
40946;BME280;55635;50.264;11.918;2023-04-10T13:44:52;95932.28;;;16.33;42.37
40946;BME280;55635;50.264;11.918;2023-04-10T13:47:33;95930.81;;;15.86;43.34
40946;BME280;55635;50.264;11.918;2023-04-10T13:50:14;95928.44;;;15.19;43.80
40946;BME280;55635;50.264;11.918;2023-04-10T13:52:55;95917.50;;;16.24;43.59
40946;BME280;55635;50.264;11.918;2023-04-10T13:55:36;95918.34;;;16.18;40.93
40946;BME280;55635;50.264;11.918;2023-04-10T13:58:18;95912.09;;;16.37;41.17
40946;BME280;55635;50.264;11.918;2023-04-10T14:01:00;95911.03;;;16.45;43.42
40946;BME280;55635;50.264;11.918;2023-04-10T14:03:41;95895.41;;;15.91;43.26
40946;BME280;55635;50.264;11.918;2023-04-10T14:06:22;95906.31;;;16.02;42.27
40946;BME280;55635;50.264;11.918;2023-04-10T14:09:03;95883.47;;;15.93;42.91
40946;BME280;55635;50.264;11.918;2023-04-10T14:11:44;95875.28;;;15.88;41.75
40946;BME280;55635;50.264;11.918;2023-04-10T14:14:25;95895.25;;;16.30;42.73
40946;BME280;55635;50.264;11.918;2023-04-10T14:17:06;95841.81;;;16.17;41.63
40946;BME280;55635;50.264;11.918;2023-04-10T14:19:47;95884.09;;;16.33;41.35
40946;BME280;55635;50.264;11.918;2023-04-10T14:22:31;95865.94;;;16.10;43.07
40946;BME280;55635;50.264;11.918;2023-04-10T14:25:12;95865.69;;;15.61;42.29
40946;BME280;55635;50.264;11.918;2023-04-10T14:27:55;95857.44;;;16.58;41.70
40946;BME280;55635;50.264;11.918;2023-04-10T14:30:36;95850.84;;;16.85;40.23
40946;BME280;55635;50.264;11.918;2023-04-10T14:33:18;95858.25;;;16.58;41.15
40946;BME280;55635;50.264;11.918;2023-04-10T14:35:58;95845.72;;;16.52;40.64
40946;BME280;55635;50.264;11.918;2023-04-10T14:38:39;95845.88;;;16.26;43.33
40946;BME280;55635;50.264;11.918;2023-04-10T14:41:20;95860.75;;;15.64;42.39
40946;BME280;55635;50.264;11.918;2023-04-10T14:44:02;95849.84;;;15.66;43.55
40946;BME280;55635;50.264;11.918;2023-04-10T14:46:43;95850.25;;;15.63;44.54
40946;BME280;55635;50.264;11.918;2023-04-10T14:49:25;95837.78;;;15.31;42.27
40946;BME280;55635;50.264;11.918;2023-04-10T14:52:06;95835.66;;;16.16;43.05
40946;BME280;55635;50.264;11.918;2023-04-10T14:54:48;95850.25;;;15.69;43.32